Ninety Six, South Carolina
Current Conditions -  °F | °C
As of 12:56 PM on Tuesday 21 Oct 2014 (Local Time) from KGRD Reporting Station
Clear Clear  
Wind Chill: 73°   Ceiling: Unl
Heat Index: 73°   Visibility: 10mi
Dew Point: 51°   Wind: 9mph
Humidity: 46%   Direction: 250°WSW
Pressure: 29.96"   Gusts: NA
Location:  34.18°N, 82.02°W
Report Text: KGRD 211656Z AUTO 25008KT 10SM CLR 23/11 A2996 RMK AO2 SLP140 T02280106
Loading
Personal Weather Stations






























Interactive Weather Map
Tropical Storm Tracking
New forecast layout! Learn more

10-Day Weather Forecast

Advertisements
Track Severe Weather on mobile